sensor_id;sensor_type;location;lat;lon;timestamp;P1;durP1;ratioP1;P2;durP2;ratioP2
70477;SDS011;57956;53.362;-1.518;2023-02-28T00:00:18;3.72;;;1.20;;
70477;SDS011;57956;53.362;-1.518;2023-02-28T00:02:44;3.90;;;1.33;;
70477;SDS011;57956;53.362;-1.518;2023-02-28T00:05:10;7.17;;;1.17;;
70477;SDS011;57956;53.362;-1.518;2023-02-28T00:07:36;2.28;;;0.63;;
70477;SDS011;57956;53.362;-1.518;2023-02-28T00:10:02;3.73;;;0.73;;
70477;SDS011;57956;53.362;-1.518;2023-02-28T00:12:27;3.30;;;0.75;;
70477;SDS011;57956;53.362;-1.518;2023-02-28T00:14:52;3.03;;;1.07;;
70477;SDS011;57956;53.362;-1.518;2023-02-28T00:17:18;5.80;;;0.60;;
70477;SDS011;57956;53.362;-1.518;2023-02-28T00:19:46;2.10;;;0.50;;
70477;SDS011;57956;53.362;-1.518;2023-02-28T00:22:12;1.95;;;0.40;;
70477;SDS011;57956;53.362;-1.518;2023-02-28T00:24:37;2.77;;;1.03;;
70477;SDS011;57956;53.362;-1.518;2023-02-28T00:27:02;2.50;;;0.30;;
70477;SDS011;57956;53.362;-1.518;2023-02-28T00:29:28;5.17;;;1.33;;
70477;SDS011;57956;53.362;-1.518;2023-02-28T00:31:53;5.30;;;1.23;;
70477;SDS011;57956;53.362;-1.518;2023-02-28T00:34:18;5.70;;;1.03;;
70477;SDS011;57956;53.362;-1.518;2023-02-28T00:36:43;4.33;;;1.73;;
70477;SDS011;57956;53.362;-1.518;2023-02-28T00:39:11;5.90;;;1.67;;
70477;SDS011;57956;53.362;-1.518;2023-02-28T00:41:36;6.13;;;2.20;;
70477;SDS011;57956;53.362;-1.518;2023-02-28T00:44:02;6.40;;;2.03;;
70477;SDS011;57956;53.362;-1.518;2023-02-28T00:46:27;5.73;;;1.70;;
70477;SDS011;57956;53.362;-1.518;2023-02-28T00:48:52;4.63;;;1.77;;
70477;SDS011;57956;53.362;-1.518;2023-02-28T00:51:18;6.80;;;1.83;;
70477;SDS011;57956;53.362;-1.518;2023-02-28T00:53:43;5.18;;;2.13;;
70477;SDS011;57956;53.362;-1.518;2023-02-28T00:56:08;6.07;;;1.87;;
70477;SDS011;57956;53.362;-1.518;2023-02-28T00:58:34;5.40;;;2.30;;
70477;SDS011;57956;53.362;-1.518;2023-02-28T01:00:59;6.20;;;2.03;;
70477;SDS011;57956;53.362;-1.518;2023-02-28T01:03:24;5.10;;;2.00;;
70477;SDS011;57956;53.362;-1.518;2023-02-28T01:05:50;7.10;;;2.20;;
70477;SDS011;57956;53.362;-1.518;2023-02-28T01:08:15;8.53;;;2.83;;
70477;SDS011;57956;53.362;-1.518;2023-02-28T01:10:41;7.07;;;1.57;;
70477;SDS011;57956;53.362;-1.518;2023-02-28T01:13:06;5.30;;;1.50;;
70477;SDS011;57956;53.362;-1.518;2023-02-28T01:15:31;6.43;;;1.77;;
70477;SDS011;57956;53.362;-1.518;2023-02-28T01:17:57;4.43;;;1.35;;
70477;SDS011;57956;53.362;-1.518;2023-02-28T01:20:23;3.03;;;0.80;;
70477;SDS011;57956;53.362;-1.518;2023-02-28T01:22:48;3.72;;;0.80;;
70477;SDS011;57956;53.362;-1.518;2023-02-28T01:25:13;3.83;;;1.20;;
70477;SDS011;57956;53.362;-1.518;2023-02-28T01:27:39;2.97;;;0.90;;
70477;SDS011;57956;53.362;-1.518;2023-02-28T01:30:05;2.23;;;0.83;;
70477;SDS011;57956;53.362;-1.518;2023-02-28T01:32:30;4.32;;;1.52;;
70477;SDS011;57956;53.362;-1.518;2023-02-28T01:34:55;5.63;;;1.50;;
70477;SDS011;57956;53.362;-1.518;2023-02-28T01:37:20;2.73;;;0.90;;
70477;SDS011;57956;53.362;-1.518;2023-02-28T01:39:46;4.37;;;0.87;;
70477;SDS011;57956;53.362;-1.518;2023-02-28T01:42:11;3.47;;;1.03;;
70477;SDS011;57956;53.362;-1.518;2023-02-28T01:47:20;5.93;;;1.00;;
70477;SDS011;57956;53.362;-1.518;2023-02-28T01:49:47;4.82;;;1.17;;
70477;SDS011;57956;53.362;-1.518;2023-02-28T01:52:12;3.35;;;1.30;;
70477;SDS011;57956;53.362;-1.518;2023-02-28T01:54:43;2.90;;;0.73;;
70477;SDS011;57956;53.362;-1.518;2023-02-28T01:57:11;2.78;;;0.57;;
70477;SDS011;57956;53.362;-1.518;2023-02-28T01:59:45;3.63;;;0.97;;
70477;SDS011;57956;53.362;-1.518;2023-02-28T02:02:14;2.33;;;0.50;;
70477;SDS011;57956;53.362;-1.518;2023-02-28T02:04:41;2.80;;;1.08;;
70477;SDS011;57956;53.362;-1.518;2023-02-28T02:07:08;2.85;;;0.60;;
70477;SDS011;57956;53.362;-1.518;2023-02-28T02:09:33;2.13;;;0.50;;
70477;SDS011;57956;53.362;-1.518;2023-02-28T02:11:59;2.60;;;0.97;;
70477;SDS011;57956;53.362;-1.518;2023-02-28T02:14:40;1.65;;;0.30;;
70477;SDS011;57956;53.362;-1.518;2023-02-28T02:37:42;6.18;;;1.50;;
70477;SDS011;57956;53.362;-1.518;2023-02-28T02:40:23;6.57;;;1.10;;
70477;SDS011;57956;53.362;-1.518;2023-02-28T02:42:51;4.22;;;0.65;;
70477;SDS011;57956;53.362;-1.518;2023-02-28T02:45:24;5.23;;;1.63;;
70477;SDS011;57956;53.362;-1.518;2023-02-28T02:47:50;2.95;;;0.77;;
70477;SDS011;57956;53.362;-1.518;2023-02-28T02:50:18;3.55;;;1.10;;
70477;SDS011;57956;53.362;-1.518;2023-02-28T02:52:45;4.35;;;1.50;;
70477;SDS011;57956;53.362;-1.518;2023-02-28T02:55:13;4.77;;;2.20;;
70477;SDS011;57956;53.362;-1.518;2023-02-28T03:00:08;3.60;;;1.10;;
70477;SDS011;57956;53.362;-1.518;2023-02-28T03:02:34;6.22;;;1.73;;
70477;SDS011;57956;53.362;-1.518;2023-02-28T03:05:01;6.57;;;2.60;;
70477;SDS011;57956;53.362;-1.518;2023-02-28T03:07:27;3.53;;;1.83;;
70477;SDS011;57956;53.362;-1.518;2023-02-28T03:09:53;4.87;;;1.80;;
70477;SDS011;57956;53.362;-1.518;2023-02-28T03:12:19;6.35;;;1.42;;
70477;SDS011;57956;53.362;-1.518;2023-02-28T03:15:07;3.25;;;1.38;;
70477;SDS011;57956;53.362;-1.518;2023-02-28T03:18:08;2.42;;;1.08;;
70477;SDS011;57956;53.362;-1.518;2023-02-28T03:33:07;3.40;;;0.63;;
70477;SDS011;57956;53.362;-1.518;2023-02-28T03:35:34;3.42;;;0.73;;
70477;SDS011;57956;53.362;-1.518;2023-02-28T03:38:16;1.23;;;0.20;;
70477;SDS011;57956;53.362;-1.518;2023-02-28T03:40:46;1.30;;;0.30;;
70477;SDS011;57956;53.362;-1.518;2023-02-28T03:43:13;3.53;;;0.57;;
70477;SDS011;57956;53.362;-1.518;2023-02-28T03:45:39;2.92;;;0.77;;
70477;SDS011;57956;53.362;-1.518;2023-02-28T03:48:13;2.97;;;0.70;;
70477;SDS011;57956;53.362;-1.518;2023-02-28T03:50:41;4.32;;;1.05;;
70477;SDS011;57956;53.362;-1.518;2023-02-28T03:53:16;2.30;;;0.83;;
70477;SDS011;57956;53.362;-1.518;2023-02-28T03:55:50;2.60;;;0.70;;
70477;SDS011;57956;53.362;-1.518;2023-02-28T04:00:57;2.03;;;0.32;;
70477;SDS011;57956;53.362;-1.518;2023-02-28T04:03:24;4.60;;;0.65;;
70477;SDS011;57956;53.362;-1.518;2023-02-28T04:05:53;3.33;;;0.80;;
70477;SDS011;57956;53.362;-1.518;2023-02-28T04:08:18;3.17;;;1.10;;
70477;SDS011;57956;53.362;-1.518;2023-02-28T04:10:45;3.53;;;0.83;;
70477;SDS011;57956;53.362;-1.518;2023-02-28T04:13:12;4.97;;;0.85;;
70477;SDS011;57956;53.362;-1.518;2023-02-28T04:15:37;3.60;;;1.00;;
70477;SDS011;57956;53.362;-1.518;2023-02-28T04:18:02;3.60;;;1.00;;
70477;SDS011;57956;53.362;-1.518;2023-02-28T04:20:28;6.23;;;2.17;;
70477;SDS011;57956;53.362;-1.518;2023-02-28T04:22:53;5.53;;;1.13;;
70477;SDS011;57956;53.362;-1.518;2023-02-28T04:25:18;4.30;;;1.27;;
70477;SDS011;57956;53.362;-1.518;2023-02-28T04:27:43;3.53;;;1.63;;
70477;SDS011;57956;53.362;-1.518;2023-02-28T04:30:09;6.63;;;1.33;;
70477;SDS011;57956;53.362;-1.518;2023-02-28T04:32:35;5.20;;;2.00;;
70477;SDS011;57956;53.362;-1.518;2023-02-28T04:35:00;3.63;;;0.57;;
70477;SDS011;57956;53.362;-1.518;2023-02-28T04:37:25;3.43;;;1.13;;
70477;SDS011;57956;53.362;-1.518;2023-02-28T04:39:53;4.40;;;1.50;;
70477;SDS011;57956;53.362;-1.518;2023-02-28T04:42:19;5.43;;;1.17;;
70477;SDS011;57956;53.362;-1.518;2023-02-28T04:44:44;4.33;;;0.83;;
70477;SDS011;57956;53.362;-1.518;2023-02-28T04:47:09;3.07;;;0.63;;
70477;SDS011;57956;53.362;-1.518;2023-02-28T04:49:35;4.93;;;0.87;;
70477;SDS011;57956;53.362;-1.518;2023-02-28T04:52:00;4.55;;;1.33;;
70477;SDS011;57956;53.362;-1.518;2023-02-28T04:54:25;1.73;;;0.50;;
70477;SDS011;57956;53.362;-1.518;2023-02-28T04:56:51;2.67;;;0.30;;
70477;SDS011;57956;53.362;-1.518;2023-02-28T04:59:17;2.17;;;0.53;;
70477;SDS011;57956;53.362;-1.518;2023-02-28T05:01:44;3.50;;;0.98;;
70477;SDS011;57956;53.362;-1.518;2023-02-28T05:04:10;4.03;;;1.00;;
70477;SDS011;57956;53.362;-1.518;2023-02-28T05:06:35;2.77;;;0.47;;
70477;SDS011;57956;53.362;-1.518;2023-02-28T05:09:00;4.97;;;1.27;;
70477;SDS011;57956;53.362;-1.518;2023-02-28T05:11:27;5.03;;;2.00;;
70477;SDS011;57956;53.362;-1.518;2023-02-28T05:13:54;5.70;;;1.33;;
70477;SDS011;57956;53.362;-1.518;2023-02-28T05:16:20;3.33;;;1.33;;
70477;SDS011;57956;53.362;-1.518;2023-02-28T05:18:45;4.80;;;2.03;;
70477;SDS011;57956;53.362;-1.518;2023-02-28T05:21:54;3.95;;;1.92;;
70477;SDS011;57956;53.362;-1.518;2023-02-28T05:24:00;1.50;;;0.45;;
70477;SDS011;57956;53.362;-1.518;2023-02-28T05:26:26;3.20;;;0.63;;
70477;SDS011;57956;53.362;-1.518;2023-02-28T05:28:52;4.75;;;1.15;;
70477;SDS011;57956;53.362;-1.518;2023-02-28T05:31:18;2.80;;;0.30;;
70477;SDS011;57956;53.362;-1.518;2023-02-28T05:33:43;4.68;;;1.08;;
70477;SDS011;57956;53.362;-1.518;2023-02-28T05:36:08;2.83;;;1.03;;
70477;SDS011;57956;53.362;-1.518;2023-02-28T05:38:34;2.10;;;0.83;;
70477;SDS011;57956;53.362;-1.518;2023-02-28T05:40:59;4.60;;;0.77;;
70477;SDS011;57956;53.362;-1.518;2023-02-28T05:43:24;3.37;;;0.63;;
70477;SDS011;57956;53.362;-1.518;2023-02-28T05:45:50;2.50;;;0.60;;
70477;SDS011;57956;53.362;-1.518;2023-02-28T05:48:15;1.97;;;0.50;;
70477;SDS011;57956;53.362;-1.518;2023-02-28T05:50:41;3.65;;;0.43;;
70477;SDS011;57956;53.362;-1.518;2023-02-28T05:53:07;1.10;;;0.50;;
70477;SDS011;57956;53.362;-1.518;2023-02-28T05:55:32;3.97;;;0.90;;
70477;SDS011;57956;53.362;-1.518;2023-02-28T05:57:58;1.88;;;0.57;;
70477;SDS011;57956;53.362;-1.518;2023-02-28T06:00:23;1.60;;;0.30;;
70477;SDS011;57956;53.362;-1.518;2023-02-28T06:02:49;3.37;;;0.87;;
70477;SDS011;57956;53.362;-1.518;2023-02-28T06:05:15;2.97;;;0.87;;
70477;SDS011;57956;53.362;-1.518;2023-02-28T06:07:41;4.47;;;1.15;;
70477;SDS011;57956;53.362;-1.518;2023-02-28T06:10:07;4.35;;;0.98;;
70477;SDS011;57956;53.362;-1.518;2023-02-28T06:12:32;2.83;;;0.87;;
70477;SDS011;57956;53.362;-1.518;2023-02-28T06:14:58;3.57;;;1.40;;
70477;SDS011;57956;53.362;-1.518;2023-02-28T06:17:23;5.33;;;1.23;;
70477;SDS011;57956;53.362;-1.518;2023-02-28T06:19:48;2.77;;;0.97;;
70477;SDS011;57956;53.362;-1.518;2023-02-28T06:22:13;3.97;;;0.93;;
70477;SDS011;57956;53.362;-1.518;2023-02-28T06:24:39;4.77;;;1.30;;
70477;SDS011;57956;53.362;-1.518;2023-02-28T06:27:04;4.27;;;1.23;;
70477;SDS011;57956;53.362;-1.518;2023-02-28T06:29:33;2.60;;;0.83;;
70477;SDS011;57956;53.362;-1.518;2023-02-28T06:31:58;3.30;;;0.50;;
70477;SDS011;57956;53.362;-1.518;2023-02-28T06:34:23;3.33;;;0.67;;
70477;SDS011;57956;53.362;-1.518;2023-02-28T06:36:50;1.83;;;0.50;;
70477;SDS011;57956;53.362;-1.518;2023-02-28T06:39:15;4.22;;;0.98;;
70477;SDS011;57956;53.362;-1.518;2023-02-28T06:41:40;3.77;;;0.67;;
70477;SDS011;57956;53.362;-1.518;2023-02-28T06:44:11;3.97;;;0.87;;
70477;SDS011;57956;53.362;-1.518;2023-02-28T06:46:40;4.68;;;0.65;;
70477;SDS011;57956;53.362;-1.518;2023-02-28T06:49:06;4.63;;;0.50;;
70477;SDS011;57956;53.362;-1.518;2023-02-28T06:51:34;2.53;;;1.48;;
70477;SDS011;57956;53.362;-1.518;2023-02-28T06:53:59;4.60;;;1.05;;
70477;SDS011;57956;53.362;-1.518;2023-02-28T06:56:25;8.00;;;0.83;;
70477;SDS011;57956;53.362;-1.518;2023-02-28T06:58:50;2.90;;;0.53;;
70477;SDS011;57956;53.362;-1.518;2023-02-28T07:01:17;3.83;;;0.43;;
70477;SDS011;57956;53.362;-1.518;2023-02-28T07:03:43;2.77;;;0.37;;
70477;SDS011;57956;53.362;-1.518;2023-02-28T07:06:09;1.63;;;0.47;;
70477;SDS011;57956;53.362;-1.518;2023-02-28T07:08:34;1.63;;;0.63;;
70477;SDS011;57956;53.362;-1.518;2023-02-28T07:11:00;4.73;;;1.10;;
70477;SDS011;57956;53.362;-1.518;2023-02-28T07:13:26;1.67;;;0.28;;
70477;SDS011;57956;53.362;-1.518;2023-02-28T07:15:55;1.67;;;0.20;;
70477;SDS011;57956;53.362;-1.518;2023-02-28T07:18:23;1.02;;;0.10;;
70477;SDS011;57956;53.362;-1.518;2023-02-28T07:20:48;1.92;;;0.65;;
70477;SDS011;57956;53.362;-1.518;2023-02-28T07:23:13;2.37;;;0.60;;
70477;SDS011;57956;53.362;-1.518;2023-02-28T07:25:39;3.37;;;0.50;;
70477;SDS011;57956;53.362;-1.518;2023-02-28T07:28:04;1.27;;;0.17;;
70477;SDS011;57956;53.362;-1.518;2023-02-28T07:30:29;2.70;;;0.83;;
70477;SDS011;57956;53.362;-1.518;2023-02-28T07:32:54;1.40;;;0.30;;
70477;SDS011;57956;53.362;-1.518;2023-02-28T07:35:21;2.25;;;0.52;;
70477;SDS011;57956;53.362;-1.518;2023-02-28T07:37:47;1.97;;;0.63;;
70477;SDS011;57956;53.362;-1.518;2023-02-28T07:40:13;2.10;;;0.40;;
70477;SDS011;57956;53.362;-1.518;2023-02-28T07:42:39;1.57;;;0.23;;
70477;SDS011;57956;53.362;-1.518;2023-02-28T07:45:04;2.57;;;0.50;;
70477;SDS011;57956;53.362;-1.518;2023-02-28T07:47:30;1.85;;;0.70;;
70477;SDS011;57956;53.362;-1.518;2023-02-28T07:49:55;1.73;;;0.40;;
70477;SDS011;57956;53.362;-1.518;2023-02-28T07:52:21;1.93;;;0.37;;
70477;SDS011;57956;53.362;-1.518;2023-02-28T07:54:48;2.78;;;0.30;;
70477;SDS011;57956;53.362;-1.518;2023-02-28T07:57:13;2.37;;;0.83;;
70477;SDS011;57956;53.362;-1.518;2023-02-28T07:59:39;2.55;;;0.30;;
70477;SDS011;57956;53.362;-1.518;2023-02-28T08:02:04;1.27;;;0.30;;
70477;SDS011;57956;53.362;-1.518;2023-02-28T08:04:31;1.80;;;0.57;;
70477;SDS011;57956;53.362;-1.518;2023-02-28T08:06:57;1.70;;;0.20;;
70477;SDS011;57956;53.362;-1.518;2023-02-28T08:09:22;3.73;;;0.50;;
70477;SDS011;57956;53.362;-1.518;2023-02-28T08:11:47;1.37;;;0.43;;
70477;SDS011;57956;53.362;-1.518;2023-02-28T08:14:13;3.77;;;0.70;;
70477;SDS011;57956;53.362;-1.518;2023-02-28T08:16:38;0.88;;;0.10;;
70477;SDS011;57956;53.362;-1.518;2023-02-28T08:19:04;2.27;;;0.47;;
70477;SDS011;57956;53.362;-1.518;2023-02-28T08:21:29;1.83;;;0.47;;
70477;SDS011;57956;53.362;-1.518;2023-02-28T08:23:54;2.50;;;0.63;;
70477;SDS011;57956;53.362;-1.518;2023-02-28T08:26:21;5.35;;;0.70;;
70477;SDS011;57956;53.362;-1.518;2023-02-28T08:28:47;4.93;;;0.73;;
70477;SDS011;57956;53.362;-1.518;2023-02-28T08:31:13;2.90;;;0.70;;
70477;SDS011;57956;53.362;-1.518;2023-02-28T08:33:39;2.88;;;0.60;;
70477;SDS011;57956;53.362;-1.518;2023-02-28T08:36:05;3.40;;;0.60;;
70477;SDS011;57956;53.362;-1.518;2023-02-28T08:38:30;3.37;;;1.07;;
70477;SDS011;57956;53.362;-1.518;2023-02-28T08:40:59;3.03;;;0.70;;
70477;SDS011;57956;53.362;-1.518;2023-02-28T08:43:25;1.73;;;0.40;;
70477;SDS011;57956;53.362;-1.518;2023-02-28T08:45:53;3.80;;;0.50;;
70477;SDS011;57956;53.362;-1.518;2023-02-28T08:48:18;4.85;;;1.10;;
70477;SDS011;57956;53.362;-1.518;2023-02-28T08:50:44;3.67;;;0.93;;
70477;SDS011;57956;53.362;-1.518;2023-02-28T08:53:09;2.63;;;0.77;;
70477;SDS011;57956;53.362;-1.518;2023-02-28T08:55:35;3.00;;;0.40;;
70477;SDS011;57956;53.362;-1.518;2023-02-28T08:58:00;2.05;;;0.35;;
70477;SDS011;57956;53.362;-1.518;2023-02-28T09:00:26;2.70;;;0.83;;
70477;SDS011;57956;53.362;-1.518;2023-02-28T09:02:51;3.63;;;0.90;;
70477;SDS011;57956;53.362;-1.518;2023-02-28T09:05:16;2.60;;;0.70;;
70477;SDS011;57956;53.362;-1.518;2023-02-28T09:07:42;1.70;;;0.43;;
70477;SDS011;57956;53.362;-1.518;2023-02-28T09:10:08;3.73;;;0.73;;
70477;SDS011;57956;53.362;-1.518;2023-02-28T09:12:34;2.47;;;0.38;;
70477;SDS011;57956;53.362;-1.518;2023-02-28T09:15:00;2.37;;;1.00;;
70477;SDS011;57956;53.362;-1.518;2023-02-28T09:17:25;1.52;;;0.43;;
70477;SDS011;57956;53.362;-1.518;2023-02-28T09:19:50;1.53;;;0.30;;
70477;SDS011;57956;53.362;-1.518;2023-02-28T09:22:16;2.63;;;0.50;;
70477;SDS011;57956;53.362;-1.518;2023-02-28T09:24:41;2.67;;;0.27;;
70477;SDS011;57956;53.362;-1.518;2023-02-28T09:27:06;3.07;;;0.93;;
70477;SDS011;57956;53.362;-1.518;2023-02-28T09:29:32;1.50;;;0.50;;
70477;SDS011;57956;53.362;-1.518;2023-02-28T09:31:58;1.77;;;0.40;;
70477;SDS011;57956;53.362;-1.518;2023-02-28T09:34:24;2.15;;;0.35;;
70477;SDS011;57956;53.362;-1.518;2023-02-28T09:36:49;2.23;;;0.30;;
70477;SDS011;57956;53.362;-1.518;2023-02-28T09:39:19;1.52;;;0.35;;
70477;SDS011;57956;53.362;-1.518;2023-02-28T09:41:45;1.02;;;0.30;;
70477;SDS011;57956;53.362;-1.518;2023-02-28T09:44:26;3.60;;;0.47;;
70477;SDS011;57956;53.362;-1.518;2023-02-28T09:46:55;2.40;;;0.30;;
70477;SDS011;57956;53.362;-1.518;2023-02-28T09:49:25;2.78;;;0.40;;
70477;SDS011;57956;53.362;-1.518;2023-02-28T09:54:19;1.37;;;0.40;;
70477;SDS011;57956;53.362;-1.518;2023-02-28T09:56:48;2.10;;;0.50;;
70477;SDS011;57956;53.362;-1.518;2023-02-28T10:02:04;3.73;;;0.40;;
70477;SDS011;57956;53.362;-1.518;2023-02-28T10:06:59;1.13;;;0.20;;
70477;SDS011;57956;53.362;-1.518;2023-02-28T10:09:29;1.98;;;0.73;;
70477;SDS011;57956;53.362;-1.518;2023-02-28T10:11:56;2.55;;;0.10;;
70477;SDS011;57956;53.362;-1.518;2023-02-28T10:14:23;1.98;;;0.63;;
70477;SDS011;57956;53.362;-1.518;2023-02-28T10:16:53;6.57;;;0.40;;
70477;SDS011;57956;53.362;-1.518;2023-02-28T10:19:30;2.80;;;0.60;;
70477;SDS011;57956;53.362;-1.518;2023-02-28T10:24:27;2.03;;;0.37;;
70477;SDS011;57956;53.362;-1.518;2023-02-28T10:26:54;2.40;;;0.63;;
70477;SDS011;57956;53.362;-1.518;2023-02-28T10:29:22;2.85;;;0.70;;
70477;SDS011;57956;53.362;-1.518;2023-02-28T10:31:47;2.73;;;0.50;;
70477;SDS011;57956;53.362;-1.518;2023-02-28T10:34:12;2.77;;;0.97;;
70477;SDS011;57956;53.362;-1.518;2023-02-28T10:36:38;1.77;;;0.40;;
70477;SDS011;57956;53.362;-1.518;2023-02-28T10:39:33;2.20;;;0.33;;
70477;SDS011;57956;53.362;-1.518;2023-02-28T10:41:48;2.33;;;0.40;;
70477;SDS011;57956;53.362;-1.518;2023-02-28T10:44:16;1.30;;;0.20;;
70477;SDS011;57956;53.362;-1.518;2023-02-28T10:46:42;2.53;;;0.37;;
70477;SDS011;57956;53.362;-1.518;2023-02-28T10:49:21;2.35;;;0.40;;
70477;SDS011;57956;53.362;-1.518;2023-02-28T10:51:46;1.50;;;0.20;;
70477;SDS011;57956;53.362;-1.518;2023-02-28T10:54:30;2.30;;;0.50;;
70477;SDS011;57956;53.362;-1.518;2023-02-28T11:00:05;2.22;;;0.40;;
70477;SDS011;57956;53.362;-1.518;2023-02-28T11:02:32;3.47;;;0.90;;
70477;SDS011;57956;53.362;-1.518;2023-02-28T11:04:58;1.73;;;0.70;;
70477;SDS011;57956;53.362;-1.518;2023-02-28T11:07:23;1.50;;;0.20;;
70477;SDS011;57956;53.362;-1.518;2023-02-28T11:09:51;2.95;;;0.30;;
70477;SDS011;57956;53.362;-1.518;2023-02-28T11:12:20;3.45;;;1.33;;
70477;SDS011;57956;53.362;-1.518;2023-02-28T11:14:50;1.88;;;0.35;;
70477;SDS011;57956;53.362;-1.518;2023-02-28T11:17:20;1.48;;;0.32;;
70477;SDS011;57956;53.362;-1.518;2023-02-28T11:19:48;1.50;;;0.30;;
70477;SDS011;57956;53.362;-1.518;2023-02-28T11:22:18;1.25;;;0.35;;
70477;SDS011;57956;53.362;-1.518;2023-02-28T11:24:44;1.42;;;0.10;;
70477;SDS011;57956;53.362;-1.518;2023-02-28T11:27:54;1.55;;;0.40;;
70477;SDS011;57956;53.362;-1.518;2023-02-28T11:29:59;1.10;;;0.10;;
70477;SDS011;57956;53.362;-1.518;2023-02-28T11:32:28;0.90;;;0.10;;
70477;SDS011;57956;53.362;-1.518;2023-02-28T11:35:14;1.83;;;0.45;;
70477;SDS011;57956;53.362;-1.518;2023-02-28T11:37:41;1.60;;;0.30;;
70477;SDS011;57956;53.362;-1.518;2023-02-28T11:40:15;1.92;;;0.40;;
70477;SDS011;57956;53.362;-1.518;2023-02-28T11:53:12;3.40;;;0.33;;
70477;SDS011;57956;53.362;-1.518;2023-02-28T11:55:40;1.45;;;0.10;;
70477;SDS011;57956;53.362;-1.518;2023-02-28T12:08:47;2.15;;;0.65;;
70477;SDS011;57956;53.362;-1.518;2023-02-28T12:11:12;2.20;;;0.55;;
70477;SDS011;57956;53.362;-1.518;2023-02-28T12:13:49;1.73;;;0.30;;
70477;SDS011;57956;53.362;-1.518;2023-02-28T12:19:22;1.25;;;0.30;;
70477;SDS011;57956;53.362;-1.518;2023-02-28T12:21:55;1.48;;;0.30;;
70477;SDS011;57956;53.362;-1.518;2023-02-28T12:27:11;1.30;;;0.10;;
70477;SDS011;57956;53.362;-1.518;2023-02-28T12:32:32;1.00;;;0.10;;
70477;SDS011;57956;53.362;-1.518;2023-02-28T12:35:11;1.73;;;0.32;;
70477;SDS011;57956;53.362;-1.518;2023-02-28T12:37:50;1.02;;;0.17;;
70477;SDS011;57956;53.362;-1.518;2023-02-28T12:40:18;1.70;;;0.47;;
70477;SDS011;57956;53.362;-1.518;2023-02-28T12:42:45;1.30;;;0.28;;
70477;SDS011;57956;53.362;-1.518;2023-02-28T12:47:40;1.27;;;0.30;;
70477;SDS011;57956;53.362;-1.518;2023-02-28T12:50:08;1.25;;;0.20;;
70477;SDS011;57956;53.362;-1.518;2023-02-28T12:55:32;2.00;;;0.75;;
70477;SDS011;57956;53.362;-1.518;2023-02-28T12:58:05;1.50;;;0.40;;
70477;SDS011;57956;53.362;-1.518;2023-02-28T13:00:34;1.67;;;0.30;;
70477;SDS011;57956;53.362;-1.518;2023-02-28T13:03:24;1.65;;;0.30;;
70477;SDS011;57956;53.362;-1.518;2023-02-28T13:19:28;1.53;;;0.10;;
70477;SDS011;57956;53.362;-1.518;2023-02-28T13:21:55;1.17;;;0.20;;
70477;SDS011;57956;53.362;-1.518;2023-02-28T13:24:37;1.73;;;0.35;;
70477;SDS011;57956;53.362;-1.518;2023-02-28T13:29:30;1.10;;;0.20;;
70477;SDS011;57956;53.362;-1.518;2023-02-28T13:34:30;2.22;;;0.50;;
70477;SDS011;57956;53.362;-1.518;2023-02-28T13:42:22;4.60;;;0.35;;
70477;SDS011;57956;53.362;-1.518;2023-02-28T13:45:36;1.37;;;0.23;;
70477;SDS011;57956;53.362;-1.518;2023-02-28T13:47:43;0.80;;;0.10;;
70477;SDS011;57956;53.362;-1.518;2023-02-28T13:50:23;0.93;;;0.10;;
70477;SDS011;57956;53.362;-1.518;2023-02-28T13:58:24;0.90;;;0.10;;
70477;SDS011;57956;53.362;-1.518;2023-02-28T14:06:07;1.88;;;0.25;;
70477;SDS011;57956;53.362;-1.518;2023-02-28T14:08:32;1.20;;;0.10;;
70477;SDS011;57956;53.362;-1.518;2023-02-28T14:11:05;4.03;;;1.63;;
70477;SDS011;57956;53.362;-1.518;2023-02-28T14:13:39;1.27;;;0.30;;
70477;SDS011;57956;53.362;-1.518;2023-02-28T14:16:13;1.23;;;0.20;;
70477;SDS011;57956;53.362;-1.518;2023-02-28T14:19:21;1.98;;;0.10;;
70477;SDS011;57956;53.362;-1.518;2023-02-28T14:21:31;2.63;;;0.20;;
70477;SDS011;57956;53.362;-1.518;2023-02-28T14:37:32;1.70;;;0.50;;
70477;SDS011;57956;53.362;-1.518;2023-02-28T14:39:58;1.40;;;0.30;;
70477;SDS011;57956;53.362;-1.518;2023-02-28T14:42:32;1.40;;;0.22;;
70477;SDS011;57956;53.362;-1.518;2023-02-28T14:44:58;2.05;;;0.50;;
70477;SDS011;57956;53.362;-1.518;2023-02-28T14:47:23;2.73;;;0.40;;
70477;SDS011;57956;53.362;-1.518;2023-02-28T14:49:51;1.55;;;0.28;;
70477;SDS011;57956;53.362;-1.518;2023-02-28T14:52:23;1.00;;;0.20;;
70477;SDS011;57956;53.362;-1.518;2023-02-28T14:54:52;1.30;;;0.30;;
70477;SDS011;57956;53.362;-1.518;2023-02-28T14:57:23;2.47;;;0.80;;
70477;SDS011;57956;53.362;-1.518;2023-02-28T14:59:56;1.15;;;0.20;;
70477;SDS011;57956;53.362;-1.518;2023-02-28T15:02:23;2.33;;;0.43;;
70477;SDS011;57956;53.362;-1.518;2023-02-28T15:04:52;0.88;;;0.13;;
70477;SDS011;57956;53.362;-1.518;2023-02-28T15:07:17;1.35;;;0.20;;
70477;SDS011;57956;53.362;-1.518;2023-02-28T15:09:42;3.07;;;0.37;;
70477;SDS011;57956;53.362;-1.518;2023-02-28T15:12:09;2.07;;;0.30;;
70477;SDS011;57956;53.362;-1.518;2023-02-28T15:14:38;1.00;;;0.10;;
70477;SDS011;57956;53.362;-1.518;2023-02-28T15:17:08;1.23;;;0.40;;
70477;SDS011;57956;53.362;-1.518;2023-02-28T15:19:37;2.80;;;1.05;;
70477;SDS011;57956;53.362;-1.518;2023-02-28T15:22:04;1.40;;;0.43;;
70477;SDS011;57956;53.362;-1.518;2023-02-28T15:24:35;1.48;;;0.40;;
70477;SDS011;57956;53.362;-1.518;2023-02-28T15:27:06;3.05;;;0.32;;
70477;SDS011;57956;53.362;-1.518;2023-02-28T15:29:36;2.00;;;0.50;;
70477;SDS011;57956;53.362;-1.518;2023-02-28T15:32:07;1.65;;;0.40;;
70477;SDS011;57956;53.362;-1.518;2023-02-28T15:34:43;3.80;;;0.53;;
70477;SDS011;57956;53.362;-1.518;2023-02-28T15:39:53;1.85;;;0.20;;
70477;SDS011;57956;53.362;-1.518;2023-02-28T15:42:22;4.47;;;0.35;;
70477;SDS011;57956;53.362;-1.518;2023-02-28T15:44:48;1.77;;;0.38;;
70477;SDS011;57956;53.362;-1.518;2023-02-28T15:47:17;1.40;;;0.20;;
70477;SDS011;57956;53.362;-1.518;2023-02-28T15:49:54;1.92;;;0.20;;
70477;SDS011;57956;53.362;-1.518;2023-02-28T15:52:31;1.42;;;0.20;;
70477;SDS011;57956;53.362;-1.518;2023-02-28T15:54:57;1.40;;;0.20;;
70477;SDS011;57956;53.362;-1.518;2023-02-28T15:57:24;0.90;;;0.10;;
70477;SDS011;57956;53.362;-1.518;2023-02-28T15:59:54;1.83;;;0.33;;
70477;SDS011;57956;53.362;-1.518;2023-02-28T16:02:21;1.02;;;0.30;;
70477;SDS011;57956;53.362;-1.518;2023-02-28T16:07:21;1.77;;;0.40;;
70477;SDS011;57956;53.362;-1.518;2023-02-28T16:09:46;1.60;;;0.23;;
70477;SDS011;57956;53.362;-1.518;2023-02-28T16:12:13;2.13;;;0.20;;
70477;SDS011;57956;53.362;-1.518;2023-02-28T16:14:38;2.33;;;0.60;;
70477;SDS011;57956;53.362;-1.518;2023-02-28T16:17:05;0.70;;;0.10;;
70477;SDS011;57956;53.362;-1.518;2023-02-28T16:19:31;4.77;;;0.40;;
70477;SDS011;57956;53.362;-1.518;2023-02-28T16:21:56;1.08;;;0.28;;
70477;SDS011;57956;53.362;-1.518;2023-02-28T16:24:22;1.73;;;0.30;;
70477;SDS011;57956;53.362;-1.518;2023-02-28T16:26:48;1.92;;;0.50;;
70477;SDS011;57956;53.362;-1.518;2023-02-28T16:29:15;1.53;;;0.43;;
70477;SDS011;57956;53.362;-1.518;2023-02-28T16:31:43;1.73;;;0.68;;
70477;SDS011;57956;53.362;-1.518;2023-02-28T16:34:08;0.87;;;0.10;;
70477;SDS011;57956;53.362;-1.518;2023-02-28T16:36:34;1.70;;;0.33;;
70477;SDS011;57956;53.362;-1.518;2023-02-28T16:38:59;0.90;;;0.13;;
70477;SDS011;57956;53.362;-1.518;2023-02-28T16:41:27;1.75;;;0.25;;
70477;SDS011;57956;53.362;-1.518;2023-02-28T16:43:53;1.50;;;0.20;;
70477;SDS011;57956;53.362;-1.518;2023-02-28T16:46:19;1.48;;;0.30;;
70477;SDS011;57956;53.362;-1.518;2023-02-28T16:48:45;1.97;;;0.30;;
70477;SDS011;57956;53.362;-1.518;2023-02-28T16:51:12;1.92;;;0.47;;
70477;SDS011;57956;53.362;-1.518;2023-02-28T16:53:38;2.08;;;0.20;;
70477;SDS011;57956;53.362;-1.518;2023-02-28T16:56:03;1.87;;;0.50;;
70477;SDS011;57956;53.362;-1.518;2023-02-28T16:58:29;1.40;;;0.30;;